Bejou, Minnesota
Current Conditions -  °F | °C
As of 1:55 AM on Friday 24 Oct 2014 (Local Time) from K3N8 Reporting Station
Clear Clear  
Wind Chill: 51°   Ceiling: Unl
Heat Index: 51°   Visibility: 10mi
Dew Point: 43°   Wind: 10mph
Humidity: 74%   Direction: 190°S
Pressure: 29.82"   Gusts: NA
Location:  47.44°N, 95.98°W
Report Text: K3N8 240655Z AUTO 19009KT 10SM CLR 11/06 A2982 RMK AO2 T01070063
Loading
Personal Weather Stations






























Interactive Weather Map New forecast layout! Learn more

10-Day Weather Forecast

Advertisements
Track Severe Weather on mobile